Time;durP1;ratioP1;P1;durP2;ratioP2;P2;SDS_P1;SDS_P2;PMS_P1;PMS_P2;Temp;Humidity;BMP_temperature;BMP_pressure;BME280_temperature;BME280_humidity;BME280_pressure;Samples;Min_cycle;Max_cycle;Signal;HPM_P1;HPM_P2
2022/07/26 00:01:31;;;;;;;8.40;4.03;;;19.20;99.90;;;;;;5261447;28;20189;-46
2022/07/26 00:04:02;;;;;;;5.20;4.70;;;19.20;99.90;;;;;;5276688;28;20239;-47
2022/07/26 00:06:33;;;;;;;6.20;4.60;;;19.00;99.90;;;;;;5248591;28;20502;-47
2022/07/26 00:09:03;;;;;;;6.27;4.53;;;19.00;99.90;;;;;;5232881;28;20674;-48
2022/07/26 00:11:34;;;;;;;10.97;4.50;;;18.90;99.90;;;;;;5265902;28;20221;-48
2022/07/26 00:14:06;;;;;;;5.40;5.00;;;18.80;99.90;;;;;;5248392;28;20674;-48
2022/07/26 00:16:38;;;;;;;8.17;5.63;;;18.70;99.90;;;;;;5227735;28;20214;-48
2022/07/26 00:19:08;;;;;;;7.57;5.13;;;18.70;99.90;;;;;;5261738;28;20432;-48
2022/07/26 00:21:39;;;;;;;7.77;3.80;;;18.60;99.90;;;;;;5254386;28;20432;-49
2022/07/26 00:24:10;;;;;;;8.10;5.13;;;18.50;99.90;;;;;;5252402;28;20251;-48
2022/07/26 00:26:41;;;;;;;5.40;4.70;;;18.50;99.90;;;;;;5254662;28;20443;-48
2022/07/26 00:29:11;;;;;;;5.03;4.67;;;18.50;99.90;;;;;;5266457;28;20210;-49
2022/07/26 00:31:42;;;;;;;5.47;4.90;;;18.40;99.90;;;;;;5251994;28;20186;-49
2022/07/26 00:34:12;;;;;;;5.60;5.10;;;18.40;99.90;;;;;;5248309;28;20267;-48
2022/07/26 00:36:43;;;;;;;6.83;5.30;;;18.40;99.90;;;;;;5259982;28;20549;-48
2022/07/26 00:39:14;;;;;;;8.23;5.57;;;18.30;99.90;;;;;;5259229;28;20178;-48
2022/07/26 00:41:44;;;;;;;10.67;4.53;;;18.30;99.90;;;;;;5266160;28;20183;-47
2022/07/26 00:44:16;;;;;;;5.43;4.97;;;18.20;99.90;;;;;;5262688;28;20209;-48
2022/07/26 00:46:46;;;;;;;4.77;4.47;;;18.30;99.90;;;;;;5261797;28;20182;-47
2022/07/26 00:49:17;;;;;;;10.33;5.70;;;18.30;99.90;;;;;;5250932;28;20460;-47
2022/07/26 00:51:47;;;;;;;5.83;5.30;;;18.30;99.90;;;;;;5259085;28;20189;-47
2022/07/26 00:54:18;;;;;;;6.33;5.83;;;18.40;99.90;;;;;;5253064;28;20190;-48
2022/07/26 00:56:49;;;;;;;4.93;4.40;;;18.30;99.90;;;;;;5252765;28;20605;-47
2022/07/26 00:59:19;;;;;;;13.33;4.97;;;18.30;99.90;;;;;;5284313;28;20189;-48
2022/07/26 01:01:50;;;;;;;10.23;5.10;;;18.40;99.90;;;;;;5266699;28;20189;-47
2022/07/26 01:04:21;;;;;;;11.73;6.10;;;18.30;99.90;;;;;;5259096;28;20300;-48
2022/07/26 01:06:52;;;;;;;7.40;5.83;;;18.30;99.90;;;;;;5265579;28;20190;-47
2022/07/26 01:09:23;;;;;;;7.50;6.37;;;18.40;99.90;;;;;;5263502;28;20202;-48
2022/07/26 01:11:54;;;;;;;12.50;6.57;;;18.40;99.90;;;;;;5267079;28;20441;-47
2022/07/26 01:14:24;;;;;;;8.33;7.03;;;18.40;99.90;;;;;;5269205;28;20440;-47
2022/07/26 01:16:55;;;;;;;11.77;6.20;;;18.40;99.90;;;;;;5250980;28;20182;-47
2022/07/26 01:19:26;;;;;;;10.03;7.10;;;18.40;99.90;;;;;;5268545;28;20185;-48
2022/07/26 01:21:56;;;;;;;13.70;6.87;;;18.40;99.90;;;;;;5257602;28;20201;-48
2022/07/26 01:24:27;;;;;;;5.80;5.40;;;18.50;99.90;;;;;;5252440;28;20300;-48
2022/07/26 01:26:58;;;;;;;10.57;6.33;;;18.50;99.90;;;;;;5261575;28;20253;-49
2022/07/26 01:29:28;;;;;;;5.87;5.30;;;18.50;99.90;;;;;;5252628;28;20289;-48
2022/07/26 01:32:00;;;;;;;6.23;5.70;;;18.50;99.90;;;;;;5255807;28;20618;-48
2022/07/26 01:34:30;;;;;;;7.40;6.20;;;18.60;99.90;;;;;;5259707;28;20204;-48
2022/07/26 01:37:01;;;;;;;7.10;6.50;;;18.60;99.90;;;;;;5265498;28;20424;-48
2022/07/26 01:39:32;;;;;;;16.03;6.03;;;18.60;99.90;;;;;;5258059;28;20657;-48
2022/07/26 01:42:02;;;;;;;8.10;5.60;;;18.60;99.90;;;;;;5282612;28;20239;-48
2022/07/26 01:44:33;;;;;;;8.23;6.80;;;18.60;99.90;;;;;;5262649;28;20229;-49
2022/07/26 01:47:04;;;;;;;9.87;7.40;;;18.70;99.90;;;;;;5249704;28;20261;-47
2022/07/26 01:49:34;;;;;;;10.97;7.40;;;18.70;99.90;;;;;;5249605;28;20199;-48
2022/07/26 01:52:05;;;;;;;10.70;7.30;;;18.70;99.90;;;;;;5258721;28;20189;-48
2022/07/26 01:54:35;;;;;;;8.57;6.73;;;18.60;99.90;;;;;;5256230;28;20198;-47
2022/07/26 01:57:06;;;;;;;12.70;7.20;;;18.70;99.90;;;;;;5249930;28;20601;-48
2022/07/26 01:59:37;;;;;;;10.00;7.27;;;18.60;99.90;;;;;;5262249;28;20197;-48
2022/07/26 02:02:07;;;;;;;8.90;7.00;;;18.60;99.90;;;;;;5250647;28;20562;-49
2022/07/26 02:07:32;;;;;;;10.90;8.10;;;18.70;99.90;;;;;;5255878;28;20198;-49
2022/07/26 02:10:03;;;;;;;10.17;8.03;;;18.70;99.90;;;;;;5264113;28;20462;-49
2022/07/26 02:12:33;;;;;;;10.33;7.80;;;18.70;99.90;;;;;;5257849;28;20835;-48
2022/07/26 02:15:06;;;;;;;8.43;7.40;;;18.70;99.90;;;;;;5260794;28;20527;-48
2022/07/26 02:17:37;;;;;;;8.77;7.60;;;18.80;99.90;;;;;;5261173;28;20654;-49
2022/07/26 02:20:08;;;;;;;11.50;8.30;;;18.80;99.90;;;;;;5258798;28;20443;-49
2022/07/26 02:22:39;;;;;;;12.30;9.27;;;18.90;99.90;;;;;;5259405;28;20433;-48
2022/07/26 02:25:09;;;;;;;12.07;9.63;;;19.00;99.90;;;;;;5249639;28;20487;-49
2022/07/26 02:27:40;;;;;;;11.00;9.90;;;19.10;99.90;;;;;;5259517;28;20189;-49
2022/07/26 02:30:11;;;;;;;10.10;7.80;;;19.10;99.90;;;;;;5262563;28;20576;-48
2022/07/26 02:32:42;;;;;;;9.97;8.93;;;19.10;99.90;;;;;;5253619;28;20550;-48
2022/07/26 02:35:13;;;;;;;12.63;8.90;;;19.10;99.90;;;;;;5267919;28;20198;-49
2022/07/26 02:37:44;;;;;;;7.50;6.90;;;19.00;99.90;;;;;;5257865;28;20440;-49
2022/07/26 02:40:14;;;;;;;16.70;8.00;;;19.00;99.90;;;;;;5257858;28;20277;-49
2022/07/26 02:42:45;;;;;;;12.73;7.17;;;18.90;99.90;;;;;;5255125;28;20248;-48
2022/07/26 02:45:16;;;;;;;8.60;7.53;;;18.80;99.90;;;;;;5264206;28;20216;-49
2022/07/26 02:47:48;;;;;;;9.60;7.27;;;18.80;99.90;;;;;;5249377;28;20189;-48
2022/07/26 02:50:23;;;;;;;6.47;5.97;;;18.80;99.90;;;;;;5267418;28;20566;-48
2022/07/26 02:52:54;;;;;;;9.10;6.63;;;18.70;99.90;;;;;;5251046;28;20435;-49
2022/07/26 02:55:26;;;;;;;12.27;7.73;;;18.70;99.90;;;;;;5248149;28;20484;-48
2022/07/26 02:57:56;;;;;;;7.70;7.00;;;18.70;99.90;;;;;;5253715;28;20457;-48
2022/07/26 03:00:27;;;;;;;9.43;6.97;;;18.70;99.90;;;;;;5261006;28;20435;-48
2022/07/26 03:02:59;;;;;;;10.10;6.90;;;18.60;99.90;;;;;;5266293;28;20543;-49
2022/07/26 03:05:30;;;;;;;9.07;7.13;;;18.60;99.90;;;;;;5266568;28;20190;-48
2022/07/26 03:08:00;;;;;;;11.10;7.47;;;18.60;99.90;;;;;;5258261;28;20536;-49
2022/07/26 03:10:31;;;;;;;11.17;7.30;;;18.60;99.90;;;;;;5273382;28;20186;-48
2022/07/26 03:13:02;;;;;;;9.33;6.43;;;18.60;99.90;;;;;;5262747;28;20227;-48
2022/07/26 03:15:32;;;;;;;7.33;6.60;;;18.60;99.90;;;;;;5267459;28;20205;-48
2022/07/26 03:18:03;;;;;;;8.13;6.63;;;18.60;99.90;;;;;;5259894;28;20201;-48
2022/07/26 03:20:34;;;;;;;8.23;7.30;;;18.60;99.90;;;;;;5230633;28;20277;-49
2022/07/26 03:23:04;;;;;;;12.53;7.50;;;18.60;99.90;;;;;;5260668;28;20196;-48
2022/07/26 03:25:35;;;;;;;8.47;7.30;;;18.60;99.90;;;;;;5263771;22;20321;-51
2022/07/26 03:28:05;;;;;;;10.13;7.33;;;18.60;99.90;;;;;;5247898;28;20198;-51
2022/07/26 03:30:36;;;;;;;8.17;7.27;;;18.60;99.90;;;;;;5253575;28;20178;-51
2022/07/26 03:33:07;;;;;;;7.80;7.03;;;18.60;99.90;;;;;;5261732;28;20170;-51
2022/07/26 03:35:37;;;;;;;7.43;6.00;;;18.60;99.90;;;;;;5263457;28;20676;-50
2022/07/26 03:38:08;;;;;;;7.13;6.60;;;18.60;99.90;;;;;;5248278;28;20182;-51
2022/07/26 03:40:38;;;;;;;7.33;6.67;;;18.60;99.90;;;;;;5247957;28;20257;-51
2022/07/26 03:43:09;;;;;;;6.53;5.90;;;18.60;99.90;;;;;;5259388;28;20194;-52
2022/07/26 03:45:41;;;;;;;7.70;6.67;;;18.60;99.90;;;;;;5261251;28;20292;-51
2022/07/26 03:48:11;;;;;;;5.93;5.33;;;18.70;99.90;;;;;;5248221;28;20194;-52
2022/07/26 03:50:42;;;;;;;12.23;5.27;;;18.70;99.90;;;;;;5258142;28;20408;-51
2022/07/26 03:53:13;;;;;;;12.83;5.27;;;18.70;99.90;;;;;;5264907;28;20188;-51
2022/07/26 03:58:33;;;;;;;8.20;4.20;;;18.70;99.90;;;;;;5251255;28;20506;-50
2022/07/26 04:01:03;;;;;;;8.10;4.40;;;18.80;99.90;;;;;;5255326;28;20835;-52
2022/07/26 04:03:34;;;;;;;5.20;4.00;;;18.80;99.90;;;;;;5252133;28;20182;-52
2022/07/26 04:06:04;;;;;;;4.77;3.40;;;18.90;99.90;;;;;;5251698;28;20251;-52
2022/07/26 04:08:35;;;;;;;5.37;4.40;;;18.90;99.90;;;;;;5267927;28;20649;-53
2022/07/26 04:11:06;;;;;;;6.30;3.97;;;19.00;99.90;;;;;;5263423;28;20178;-51
2022/07/26 04:13:36;;;;;;;8.90;4.53;;;19.00;99.90;;;;;;5254020;28;20182;-52
2022/07/26 04:16:07;;;;;;;4.90;3.37;;;19.10;99.90;;;;;;5262749;28;20182;-53
2022/07/26 04:18:38;;;;;;;4.60;3.40;;;19.10;99.90;;;;;;5257105;28;20544;-52
2022/07/26 04:21:08;;;;;;;6.83;3.33;;;19.10;99.90;;;;;;5260792;28;20188;-52
2022/07/26 04:23:39;;;;;;;5.17;3.60;;;19.20;99.90;;;;;;5252112;28;20174;-53
2022/07/26 04:26:12;;;;;;;5.93;3.80;;;19.20;99.90;;;;;;5266762;28;20564;-51
2022/07/26 04:28:42;;;;;;;10.70;4.23;;;19.20;99.90;;;;;;5264268;28;20210;-51
2022/07/26 04:31:13;;;;;;;4.27;3.40;;;19.20;99.90;;;;;;5258464;28;20843;-53
2022/07/26 04:33:44;;;;;;;5.87;3.30;;;19.20;99.90;;;;;;5267049;28;20614;-53
2022/07/26 04:36:14;;;;;;;5.33;3.27;;;19.30;99.90;;;;;;5253389;28;20576;-53
2022/07/26 04:38:45;;;;;;;9.77;4.20;;;19.40;99.90;;;;;;5251225;28;20174;-51
2022/07/26 04:41:15;;;;;;;4.27;3.57;;;19.40;99.90;;;;;;5262843;28;20610;-52
2022/07/26 04:43:46;;;;;;;4.60;3.73;;;19.50;99.90;;;;;;5269207;28;20178;-52
2022/07/26 04:46:18;;;;;;;3.67;3.07;;;19.60;99.90;;;;;;5252280;28;20198;-52
2022/07/26 04:48:48;;;;;;;3.70;2.90;;;19.60;99.90;;;;;;5261027;28;20252;-51
2022/07/26 04:51:19;;;;;;;3.73;2.60;;;19.60;99.90;;;;;;5269823;28;20404;-51
2022/07/26 04:53:49;;;;;;;5.33;3.77;;;19.70;99.90;;;;;;5250639;28;20655;-52
2022/07/26 04:56:20;;;;;;;6.07;3.50;;;19.90;99.90;;;;;;5234102;28;20277;-51
2022/07/26 04:58:51;;;;;;;5.27;3.67;;;20.10;99.90;;;;;;5258411;28;20257;-52
2022/07/26 05:01:21;;;;;;;9.90;3.47;;;20.30;99.90;;;;;;5264423;28;20182;-52
2022/07/26 05:03:52;;;;;;;5.43;3.97;;;20.50;99.90;;;;;;5259891;28;20186;-53
2022/07/26 05:06:22;;;;;;;3.10;2.80;;;20.70;99.90;;;;;;5268386;28;20594;-52
2022/07/26 05:08:53;;;;;;;5.57;2.63;;;20.90;99.90;;;;;;5259364;28;20364;-53
2022/07/26 05:11:24;;;;;;;4.63;2.90;;;21.10;99.90;;;;;;5257867;28;20620;-51
2022/07/26 05:13:55;;;;;;;5.70;2.90;;;21.40;99.90;;;;;;5263554;28;20178;-53
2022/07/26 05:16:26;;;;;;;3.33;3.13;;;21.70;99.90;;;;;;5254445;28;20482;-52
2022/07/26 05:18:56;;;;;;;3.50;3.17;;;21.90;99.90;;;;;;5267761;28;20192;-52
2022/07/26 05:21:27;;;;;;;4.47;3.80;;;22.10;99.90;;;;;;5284029;28;20292;-52
2022/07/26 05:23:58;;;;;;;7.60;3.00;;;22.10;99.90;;;;;;5268392;28;20205;-50
2022/07/26 05:26:28;;;;;;;2.97;2.83;;;22.20;99.90;;;;;;5265403;28;20189;-50
2022/07/26 05:28:59;;;;;;;7.63;3.53;;;22.20;99.90;;;;;;5262177;28;20224;-52
2022/07/26 05:31:29;;;;;;;3.17;2.87;;;22.70;99.90;;;;;;5252913;28;20189;-51
2022/07/26 05:34:02;;;;;;;5.70;2.50;;;23.60;99.90;;;;;;5269446;28;20202;-52
2022/07/26 05:36:33;;;;;;;5.17;2.83;;;24.10;99.90;;;;;;5264280;28;20265;-51
2022/07/26 05:39:04;;;;;;;5.97;2.63;;;24.70;99.90;;;;;;5268315;28;20484;-52
2022/07/26 05:41:35;;;;;;;7.17;2.60;;;25.70;97.90;;;;;;5267822;28;20511;-53
2022/07/26 05:44:05;;;;;;;2.77;2.57;;;26.00;94.20;;;;;;5266780;28;20258;-53
2022/07/26 05:46:36;;;;;;;2.40;2.20;;;26.20;92.30;;;;;;5268971;28;20224;-51
2022/07/26 05:49:07;;;;;;;5.90;2.90;;;26.70;90.10;;;;;;5267299;28;20197;-52
2022/07/26 05:51:38;;;;;;;1.83;1.70;;;27.40;80.20;;;;;;5266735;28;20185;-52
2022/07/26 05:54:08;;;;;;;3.40;1.90;;;27.90;74.10;;;;;;5263250;28;20193;-54
2022/07/26 05:56:39;;;;;;;2.67;2.13;;;28.50;67.50;;;;;;5270240;28;20201;-53
2022/07/26 05:59:09;;;;;;;5.23;2.30;;;29.30;63.90;;;;;;5262787;28;20698;-52
2022/07/26 06:01:40;;;;;;;6.47;2.17;;;30.00;59.40;;;;;;5268171;28;20189;-52
2022/07/26 06:04:11;;;;;;;2.63;2.40;;;29.90;56.60;;;;;;5259123;28;20220;-53
2022/07/26 06:06:42;;;;;;;6.00;2.57;;;29.60;56.30;;;;;;5263871;28;20186;-53
2022/07/26 06:09:13;;;;;;;3.70;2.43;;;30.10;55.10;;;;;;5266576;28;20462;-54
2022/07/26 06:11:43;;;;;;;5.30;2.23;;;31.40;52.90;;;;;;5265057;28;20214;-53
2022/07/26 06:14:14;;;;;;;3.73;2.10;;;32.30;49.80;;;;;;5267267;28;20685;-54
2022/07/26 06:16:46;;;;;;;2.47;2.27;;;31.50;48.10;;;;;;5266701;28;20185;-52
2022/07/26 06:19:17;;;;;;;4.90;2.00;;;30.70;51.10;;;;;;5264008;28;20604;-52
2022/07/26 06:21:47;;;;;;;4.77;2.27;;;31.50;49.30;;;;;;5260408;28;20466;-53
2022/07/26 06:24:18;;;;;;;5.37;2.20;;;31.50;48.00;;;;;;5280989;28;20279;-52
2022/07/26 06:26:51;;;;;;;6.73;1.97;;;31.70;47.50;;;;;;5267622;28;20191;-53
2022/07/26 06:29:22;;;;;;;8.40;2.00;;;32.40;46.80;;;;;;5267594;28;20236;-52
2022/07/26 06:31:53;;;;;;;4.43;1.80;;;31.80;46.00;;;;;;5263715;28;20456;-53
2022/07/26 06:34:24;;;;;;;4.67;1.67;;;31.70;46.90;;;;;;5263893;28;20489;-52
2022/07/26 06:36:54;;;;;;;4.97;2.87;;;32.60;45.20;;;;;;5266796;28;20189;-52
2022/07/26 06:39:25;;;;;;;1.80;1.67;;;32.00;44.90;;;;;;5258034;28;20189;-53
2022/07/26 06:41:55;;;;;;;7.80;2.17;;;31.50;45.90;;;;;;5264830;28;20185;-53
2022/07/26 06:44:26;;;;;;;8.13;3.07;;;31.00;46.20;;;;;;5267838;28;20550;-52
2022/07/26 06:46:57;;;;;;;7.20;2.73;;;30.30;47.50;;;;;;5259973;28;20629;-52
2022/07/26 06:49:27;;;;;;;9.10;2.10;;;29.70;49.50;;;;;;5261408;28;20186;-52
2022/07/26 06:51:58;;;;;;;3.00;1.60;;;29.40;49.70;;;;;;5252763;28;20186;-53
2022/07/26 06:54:28;;;;;;;6.03;2.10;;;29.00;50.70;;;;;;5259088;28;20673;-52
2022/07/26 06:56:59;;;;;;;6.37;2.17;;;29.70;49.90;;;;;;5267237;28;20181;-54
2022/07/26 06:59:30;;;;;;;1.47;1.37;;;30.20;48.60;;;;;;5264265;28;20193;-51
2022/07/26 07:02:00;;;;;;;9.30;2.50;;;30.70;48.00;;;;;;5266382;28;20209;-55
2022/07/26 07:04:32;;;;;;;5.47;1.87;;;31.70;46.70;;;;;;5261895;28;20212;-55
2022/07/26 07:07:04;;;;;;;2.50;1.27;;;32.80;43.80;;;;;;5268138;28;20571;-53
2022/07/26 07:09:36;;;;;;;4.20;2.13;;;33.70;41.70;;;;;;5261165;28;20506;-53
2022/07/26 07:12:07;;;;;;;4.97;1.87;;;33.80;41.00;;;;;;5263824;28;20426;-53
2022/07/26 07:14:38;;;;;;;6.00;1.87;;;34.00;40.90;;;;;;5263302;28;20205;-52
2022/07/26 07:17:09;;;;;;;4.13;1.57;;;32.60;41.40;;;;;;5261688;28;20188;-53
2022/07/26 07:19:40;;;;;;;4.40;1.70;;;32.00;43.40;;;;;;5260975;28;20435;-53
2022/07/26 07:22:10;;;;;;;9.40;1.43;;;31.70;43.60;;;;;;5252036;28;20640;-52
2022/07/26 07:24:41;;;;;;;3.17;1.90;;;31.90;44.10;;;;;;5260962;28;20223;-53
2022/07/26 07:27:12;;;;;;;4.20;2.20;;;31.70;43.80;;;;;;5266727;28;20315;-52
2022/07/26 07:29:43;;;;;;;4.33;2.33;;;30.70;45.70;;;;;;5266614;28;21014;-53
2022/07/26 07:32:13;;;;;;;2.70;2.27;;;31.20;44.90;;;;;;5260938;28;20178;-53
2022/07/26 07:34:45;;;;;;;2.87;1.60;;;32.00;43.60;;;;;;5261235;28;20201;-53
2022/07/26 07:37:17;;;;;;;2.60;2.10;;;32.00;42.70;;;;;;5244746;28;20234;-54
2022/07/26 07:39:48;;;;;;;5.67;1.80;;;32.30;42.50;;;;;;5280930;28;20423;-54
2022/07/26 07:42:19;;;;;;;4.93;1.67;;;32.50;42.80;;;;;;5263753;28;20184;-54
2022/07/26 07:44:49;;;;;;;5.47;1.80;;;33.30;41.00;;;;;;5257784;28;20201;-55
2022/07/26 07:47:21;;;;;;;1.70;1.10;;;32.40;41.60;;;;;;5256080;28;20186;-54
2022/07/26 07:49:51;;;;;;;1.57;1.47;;;31.40;42.90;;;;;;5267057;28;20192;-54
2022/07/26 07:52:22;;;;;;;4.03;1.80;;;31.40;43.40;;;;;;5264646;28;20436;-53
2022/07/26 07:54:52;;;;;;;5.23;1.77;;;31.70;42.40;;;;;;5267506;28;20607;-53
2022/07/26 07:57:23;;;;;;;5.80;2.20;;;31.40;43.20;;;;;;5265233;28;20196;-52
2022/07/26 07:59:54;;;;;;;4.40;1.60;;;31.90;42.10;;;;;;5266666;28;20180;-54
2022/07/26 08:02:24;;;;;;;1.70;1.33;;;31.30;42.70;;;;;;5273931;28;20200;-55
2022/07/26 08:04:55;;;;;;;7.20;1.93;;;30.70;45.80;;;;;;5267050;28;20212;-52
2022/07/26 08:07:25;;;;;;;1.70;1.60;;;31.70;42.80;;;;;;5266145;28;20215;-53
2022/07/26 08:09:56;;;;;;;9.40;2.50;;;31.40;43.00;;;;;;5265166;28;20266;-54
2022/07/26 08:12:26;;;;;;;7.10;3.87;;;30.10;44.80;;;;;;5268127;28;20269;-53
2022/07/26 08:14:57;;;;;;;2.80;1.83;;;28.80;46.90;;;;;;5266256;28;20201;-53
2022/07/26 08:17:28;;;;;;;7.90;2.07;;;27.60;49.00;;;;;;5262705;28;20546;-54
2022/07/26 08:19:58;;;;;;;5.07;1.80;;;26.60;51.50;;;;;;5259750;28;20179;-53
2022/07/26 08:22:29;;;;;;;5.70;2.00;;;25.60;53.70;;;;;;5255915;28;20273;-53
2022/07/26 08:25:00;;;;;;;4.90;1.43;;;25.00;55.00;;;;;;5266164;28;20224;-53
2022/07/26 08:27:30;;;;;;;4.63;1.50;;;24.70;56.30;;;;;;5268544;28;20220;-53
2022/07/26 08:30:01;;;;;;;3.10;1.57;;;24.10;57.40;;;;;;5265091;28;20235;-53
2022/07/26 08:32:32;;;;;;;3.70;1.60;;;23.70;58.50;;;;;;5266289;28;20592;-53
2022/07/26 08:35:03;;;;;;;1.40;1.40;;;23.60;59.40;;;;;;5245438;28;20567;-54
2022/07/26 08:37:33;;;;;;;1.93;1.20;;;23.60;60.10;;;;;;5259114;28;20213;-54
2022/07/26 08:40:05;;;;;;;8.63;1.47;;;24.90;57.40;;;;;;5264738;28;20194;-54
2022/07/26 08:42:35;;;;;;;3.13;1.33;;;25.30;55.70;;;;;;5265021;28;20545;-53
2022/07/26 08:45:07;;;;;;;3.93;1.87;;;25.00;56.20;;;;;;5261271;28;20447;-53
2022/07/26 08:47:39;;;;;;;3.67;2.20;;;24.50;57.20;;;;;;5269415;28;20205;-53
2022/07/26 08:50:10;;;;;;;2.97;1.60;;;24.10;58.50;;;;;;5268602;28;20850;-53
2022/07/26 08:52:41;;;;;;;2.17;1.50;;;23.80;59.40;;;;;;5266178;28;20515;-52
2022/07/26 08:55:17;;;;;;;1.40;1.40;;;23.70;59.80;;;;;;5267070;28;20235;-53
2022/07/26 08:57:47;;;;;;;5.60;2.33;;;23.60;60.00;;;;;;5268559;28;20411;-54
2022/07/26 09:00:25;;;;;;;1.67;1.57;;;23.50;60.70;;;;;;5269380;28;20431;-54
2022/07/26 09:02:58;;;;;;;4.63;1.63;;;23.40;61.10;;;;;;5268782;28;20182;-55
2022/07/26 09:05:38;;;;;;;12.73;2.50;;;23.40;61.90;;;;;;5258559;28;20951;-53
2022/07/26 09:08:24;;;;;;;2.23;1.27;;;23.60;61.60;;;;;;5270241;28;20439;-52
2022/07/26 09:10:55;;;;;;;5.50;1.70;;;24.20;61.30;;;;;;5270282;28;20427;-52
2022/07/26 09:13:39;;;;;;;4.97;1.70;;;24.90;59.00;;;;;;5269030;28;20423;-49
2022/07/26 09:16:10;;;;;;;1.20;1.10;;;25.30;58.10;;;;;;5262117;28;20426;-50
2022/07/26 09:18:40;;;;;;;1.67;1.57;;;25.60;55.60;;;;;;5265477;28;20923;-51
2022/07/26 09:21:31;;;;;;;3.20;1.27;;;25.70;55.00;;;;;;5267973;28;20272;-50
2022/07/26 09:26:39;;;;;;;9.37;2.00;;;25.80;54.60;;;;;;5253661;28;20483;-50
2022/07/26 09:29:11;;;;;;;2.87;1.23;;;26.00;54.20;;;;;;5252104;28;20455;-51
2022/07/26 09:31:43;;;;;;;2.20;0.90;;;25.30;54.60;;;;;;5268489;28;20177;-50
2022/07/26 09:34:24;;;;;;;1.37;1.27;;;24.90;55.90;;;;;;5253346;28;20423;-50
2022/07/26 09:36:54;;;;;;;4.63;1.80;;;25.00;56.50;;;;;;5288472;27;20491;-50
2022/07/26 09:39:25;;;;;;;3.67;1.73;;;25.60;56.60;;;;;;5287915;27;20431;-49
2022/07/26 09:41:56;;;;;;;9.70;1.63;;;25.80;55.80;;;;;;5272343;28;20185;-51
2022/07/26 09:44:26;;;;;;;5.63;2.20;;;25.60;55.00;;;;;;5261764;28;20550;-49
2022/07/26 09:46:58;;;;;;;4.73;1.33;;;25.40;55.90;;;;;;5268005;28;20488;-50
2022/07/26 09:49:29;;;;;;;3.90;1.80;;;25.10;56.20;;;;;;5289247;27;20217;-51
2022/07/26 09:51:59;;;;;;;7.80;1.80;;;25.10;57.40;;;;;;5272669;28;20943;-49
2022/07/26 09:54:31;;;;;;;1.10;1.10;;;25.30;57.40;;;;;;5271304;28;20201;-49
2022/07/26 09:57:03;;;;;;;3.03;1.77;;;25.90;56.60;;;;;;5285431;28;20197;-51
2022/07/26 09:59:33;;;;;;;9.10;2.10;;;26.50;55.50;;;;;;5282977;28;20430;-50
2022/07/26 10:02:04;;;;;;;3.83;2.30;;;26.80;55.00;;;;;;5261873;28;20965;-48
2022/07/26 10:04:35;;;;;;;1.23;1.13;;;26.90;53.50;;;;;;5266213;28;20209;-49
2022/07/26 10:07:06;;;;;;;4.70;2.33;;;27.10;52.30;;;;;;5268327;28;20418;-47
2022/07/26 10:09:51;;;;;;;9.33;4.83;;;27.00;50.80;;;;;;5278785;28;20284;-47
2022/07/26 10:12:26;;;;;;;7.93;1.07;;;26.60;51.80;;;;;;5286956;27;20459;-48
2022/07/26 10:14:57;;;;;;;1.43;1.03;;;26.30;52.80;;;;;;5250497;28;20466;-49
2022/07/26 10:17:28;;;;;;;2.33;1.50;;;25.70;53.70;;;;;;5270290;28;20445;-47
2022/07/26 10:20:04;;;;;;;1.20;1.10;;;25.30;54.80;;;;;;5283140;28;20185;-48
2022/07/26 10:22:46;;;;;;;2.00;1.90;;;25.40;55.30;;;;;;5262368;28;20181;-49
2022/07/26 10:25:17;;;;;;;4.53;2.00;;;25.60;55.20;;;;;;5253721;28;20476;-48
2022/07/26 10:27:49;;;;;;;1.00;1.00;;;25.60;55.00;;;;;;5280236;28;20423;-47
2022/07/26 10:30:23;;;;;;;9.03;1.80;;;25.60;54.80;;;;;;5276258;28;20209;-48
2022/07/26 10:33:01;;;;;;;2.97;1.20;;;26.00;55.30;;;;;;5277919;27;20429;-46
2022/07/26 10:35:40;;;;;;;3.73;1.70;;;26.10;54.20;;;;;;5283840;28;20469;-49
2022/07/26 10:38:21;;;;;;;6.50;1.40;;;26.10;53.80;;;;;;5268699;28;20435;-50
2022/07/26 10:41:00;;;;;;;1.43;1.00;;;25.60;54.40;;;;;;5267698;28;20463;-48
2022/07/26 10:43:32;;;;;;;1.43;1.33;;;25.60;55.00;;;;;;5280819;28;21134;-47
2022/07/26 10:46:15;;;;;;;4.23;1.33;;;25.60;55.00;;;;;;5286892;28;20446;-47
2022/07/26 10:49:02;;;;;;;2.00;1.43;;;25.90;55.30;;;;;;5289889;28;20498;-48
2022/07/26 10:51:35;;;;;;;2.00;1.77;;;25.90;55.00;;;;;;5288884;28;20430;-47
2022/07/26 10:54:11;;;;;;;4.33;1.73;;;26.10;55.00;;;;;;5273769;28;20431;-47
2022/07/26 10:56:42;;;;;;;2.53;1.40;;;26.20;54.40;;;;;;5265790;28;20433;-48
2022/07/26 10:59:12;;;;;;;2.50;1.20;;;26.10;54.40;;;;;;5265453;28;20439;-50
2022/07/26 11:01:44;;;;;;;2.47;2.03;;;25.90;55.00;;;;;;5285205;28;20205;-50
2022/07/26 11:04:19;;;;;;;5.60;1.60;;;25.60;55.50;;;;;;5284405;27;20652;-50
2022/07/26 11:06:50;;;;;;;7.30;2.20;;;25.60;55.60;;;;;;5288328;28;20437;-51
2022/07/26 11:09:22;;;;;;;6.50;1.50;;;25.70;55.60;;;;;;5278083;28;20454;-53
2022/07/26 11:11:53;;;;;;;7.00;4.83;;;25.90;55.50;;;;;;5276434;28;20494;-51
2022/07/26 11:14:25;;;;;;;1.90;1.80;;;25.90;54.40;;;;;;5281523;28;20497;-51
2022/07/26 11:16:55;;;;;;;3.63;2.10;;;26.10;54.50;;;;;;5267456;28;20276;-51
2022/07/26 11:19:28;;;;;;;2.47;2.27;;;26.20;54.70;;;;;;5288115;28;20842;-50
2022/07/26 11:21:59;;;;;;;5.07;2.53;;;26.40;54.50;;;;;;5284910;28;20193;-52
2022/07/26 11:24:30;;;;;;;2.50;2.30;;;26.60;53.40;;;;;;5262971;28;20466;-52
2022/07/26 11:27:02;;;;;;;2.10;1.90;;;26.80;53.70;;;;;;5278151;28;20766;-51
2022/07/26 11:29:34;;;;;;;9.10;4.03;;;27.00;53.70;;;;;;5269903;28;20212;-52
2022/07/26 11:32:07;;;;;;;2.03;1.93;;;27.10;53.10;;;;;;5266120;28;20427;-51
2022/07/26 11:34:37;;;;;;;4.57;1.80;;;27.20;53.60;;;;;;5279272;28;20941;-51
2022/07/26 11:37:08;;;;;;;2.10;1.43;;;27.20;53.30;;;;;;5270537;28;20532;-50
2022/07/26 11:39:39;;;;;;;1.80;1.30;;;27.30;53.60;;;;;;5284820;28;20206;-52
2022/07/26 11:42:12;;;;;;;14.80;6.80;;;27.20;53.70;;;;;;5283233;28;20259;-51
2022/07/26 11:44:44;;;;;;;9.83;1.83;;;27.10;53.20;;;;;;5284365;28;20295;-51
2022/07/26 11:47:20;;;;;;;1.70;1.60;;;26.60;53.00;;;;;;5283657;28;20431;-50
2022/07/26 11:49:50;;;;;;;5.10;1.10;;;26.10;54.50;;;;;;5266668;28;20459;-50
2022/07/26 11:52:29;;;;;;;8.00;1.60;;;25.90;54.50;;;;;;5279370;28;20468;-49
2022/07/26 11:54:59;;;;;;;3.13;1.70;;;25.70;54.50;;;;;;5269777;28;20279;-50
2022/07/26 11:57:30;;;;;;;8.73;1.57;;;25.80;54.80;;;;;;5284222;28;20502;-50
2022/07/26 12:00:02;;;;;;;1.60;1.50;;;25.80;54.00;;;;;;5269787;28;20173;-51
2022/07/26 12:02:32;;;;;;;15.83;2.07;;;25.90;54.50;;;;;;5266909;28;20234;-49
2022/07/26 12:05:21;;;;;;;6.83;1.50;;;26.00;54.70;;;;;;5283179;28;20454;-48
2022/07/26 12:07:55;;;;;;;2.90;1.80;;;25.90;54.70;;;;;;5280098;28;20212;-48
2022/07/26 12:10:27;;;;;;;9.97;5.93;;;26.10;54.40;;;;;;5258041;28;20458;-47
2022/07/26 12:13:08;;;;;;;3.10;2.80;;;26.00;54.20;;;;;;5269870;28;20419;-48
2022/07/26 12:15:46;;;;;;;2.03;1.80;;;25.70;53.00;;;;;;5270214;28;20954;-49
2022/07/26 12:18:26;;;;;;;2.20;2.10;;;25.20;52.40;;;;;;5287620;28;20433;-47
2022/07/26 12:20:59;;;;;;;2.17;2.00;;;24.70;53.50;;;;;;5273571;28;20466;-48
2022/07/26 12:23:48;;;;;;;2.50;1.97;;;24.40;54.60;;;;;;5271471;28;20493;-49
2022/07/26 12:26:27;;;;;;;10.87;2.27;;;23.90;59.60;;;;;;5269766;28;20870;-48
2022/07/26 12:29:23;;;;;;;3.03;2.20;;;23.40;62.80;;;;;;5287759;28;20465;-50
2022/07/26 12:32:14;;;;;;;3.90;1.30;;;23.20;64.50;;;;;;5286133;27;20445;-50
2022/07/26 12:35:07;;;;;;;2.87;1.53;;;23.10;67.60;;;;;;5266201;27;20974;-48
2022/07/26 12:37:44;;;;;;;1.53;1.10;;;22.50;71.40;;;;;;5273008;27;20422;-48
2022/07/26 12:40:23;;;;;;;2.20;1.30;;;22.10;83.10;;;;;;5286500;28;20415;-48
2022/07/26 12:42:59;;;;;;;5.70;1.83;;;21.60;96.40;;;;;;5285370;28;20442;-47
2022/07/26 12:45:32;;;;;;;4.00;1.70;;;20.90;99.90;;;;;;5282155;27;20983;-47
2022/07/26 12:48:09;;;;;;;7.50;2.57;;;20.30;99.90;;;;;;5262872;28;20517;-48
2022/07/26 12:50:40;;;;;;;2.20;2.10;;;19.80;99.90;;;;;;5283999;27;20423;-47
2022/07/26 12:53:10;;;;;;;2.43;2.20;;;19.50;99.90;;;;;;5285845;28;20877;-47
2022/07/26 12:55:41;;;;;;;2.30;2.10;;;19.40;99.90;;;;;;5279403;28;20277;-49
2022/07/26 12:58:12;;;;;;;1.47;1.47;;;19.30;99.90;;;;;;5291878;28;20620;-46
2022/07/26 13:00:42;;;;;;;3.67;2.60;;;19.30;99.90;;;;;;5288438;28;20189;-48
2022/07/26 13:03:13;;;;;;;5.60;2.20;;;19.30;99.90;;;;;;5287310;28;20648;-47
2022/07/26 13:05:43;;;;;;;2.13;2.03;;;19.40;99.90;;;;;;5282496;27;20202;-47
2022/07/26 13:08:14;;;;;;;1.53;1.43;;;19.40;99.90;;;;;;5269965;28;20182;-46
2022/07/26 13:10:45;;;;;;;1.73;1.37;;;19.30;99.90;;;;;;5275465;27;20177;-46
2022/07/26 13:13:15;;;;;;;2.40;1.43;;;19.30;99.90;;;;;;5289475;28;20633;-47
2022/07/26 13:15:46;;;;;;;2.50;2.40;;;19.10;99.90;;;;;;5261116;28;20765;-46
2022/07/26 13:18:17;;;;;;;1.90;1.80;;;19.10;99.90;;;;;;5273268;28;20180;-47